sensor_id;sensor_type;location;lat;lon;timestamp;temperature;humidity
44647;DHT22;56315;-33.902;151.160;2023-04-09T00:02:09;27.60;82.90
44647;DHT22;56315;-33.902;151.160;2023-04-09T00:04:37;27.00;82.90
44647;DHT22;56315;-33.902;151.160;2023-04-09T00:07:04;27.20;82.60
44647;DHT22;56315;-33.902;151.160;2023-04-09T00:09:31;27.10;83.70
44647;DHT22;56315;-33.902;151.160;2023-04-09T00:11:58;27.90;84.20
44647;DHT22;56315;-33.902;151.160;2023-04-09T00:14:27;27.60;82.60
44647;DHT22;56315;-33.902;151.160;2023-04-09T00:16:55;28.10;83.40
44647;DHT22;56315;-33.902;151.160;2023-04-09T00:19:22;28.50;83.50
44647;DHT22;56315;-33.902;151.160;2023-04-09T00:21:49;29.00;81.50
44647;DHT22;56315;-33.902;151.160;2023-04-09T00:24:18;29.30;82.80
44647;DHT22;56315;-33.902;151.160;2023-04-09T00:26:45;29.40;80.70
44647;DHT22;56315;-33.902;151.160;2023-04-09T00:29:12;29.10;81.00
44647;DHT22;56315;-33.902;151.160;2023-04-09T00:31:39;29.10;80.00
44647;DHT22;56315;-33.902;151.160;2023-04-09T00:34:06;29.10;81.70
44647;DHT22;56315;-33.902;151.160;2023-04-09T00:36:34;28.80;82.30
44647;DHT22;56315;-33.902;151.160;2023-04-09T00:39:01;29.40;82.20
44647;DHT22;56315;-33.902;151.160;2023-04-09T00:41:28;29.40;80.20
44647;DHT22;56315;-33.902;151.160;2023-04-09T00:43:56;29.50;80.90
44647;DHT22;56315;-33.902;151.160;2023-04-09T00:46:23;29.20;80.00
44647;DHT22;56315;-33.902;151.160;2023-04-09T00:48:50;29.00;79.90
44647;DHT22;56315;-33.902;151.160;2023-04-09T00:51:18;29.00;80.90
44647;DHT22;56315;-33.902;151.160;2023-04-09T00:53:46;28.60;79.20
44647;DHT22;56315;-33.902;151.160;2023-04-09T00:56:14;29.00;80.80
44647;DHT22;56315;-33.902;151.160;2023-04-09T00:58:43;29.10;80.30
44647;DHT22;56315;-33.902;151.160;2023-04-09T01:01:10;29.40;79.70
44647;DHT22;56315;-33.902;151.160;2023-04-09T01:03:38;29.50;79.10
44647;DHT22;56315;-33.902;151.160;2023-04-09T01:06:39;29.70;78.50
44647;DHT22;56315;-33.902;151.160;2023-04-09T01:09:20;29.50;79.50
44647;DHT22;56315;-33.902;151.160;2023-04-09T01:12:01;29.60;79.90
44647;DHT22;56315;-33.902;151.160;2023-04-09T01:14:44;29.80;79.10
44647;DHT22;56315;-33.902;151.160;2023-04-09T01:17:33;29.50;78.50
44647;DHT22;56315;-33.902;151.160;2023-04-09T01:22:41;30.30;79.10
44647;DHT22;56315;-33.902;151.160;2023-04-09T01:28:30;31.30;80.10
44647;DHT22;56315;-33.902;151.160;2023-04-09T01:31:05;31.30;78.00
44647;DHT22;56315;-33.902;151.160;2023-04-09T01:33:33;31.10;77.60
44647;DHT22;56315;-33.902;151.160;2023-04-09T01:36:02;31.10;78.00
44647;DHT22;56315;-33.902;151.160;2023-04-09T01:38:31;31.20;77.80
44647;DHT22;56315;-33.902;151.160;2023-04-09T01:40:59;30.70;78.10
44647;DHT22;56315;-33.902;151.160;2023-04-09T01:43:27;30.50;81.20
44647;DHT22;56315;-33.902;151.160;2023-04-09T01:45:55;30.30;78.70
44647;DHT22;56315;-33.902;151.160;2023-04-09T01:48:23;30.30;79.60
44647;DHT22;56315;-33.902;151.160;2023-04-09T01:50:51;30.20;78.90
44647;DHT22;56315;-33.902;151.160;2023-04-09T01:53:18;30.30;78.70
44647;DHT22;56315;-33.902;151.160;2023-04-09T01:55:46;30.80;78.10
44647;DHT22;56315;-33.902;151.160;2023-04-09T01:58:13;30.50;76.90
44647;DHT22;56315;-33.902;151.160;2023-04-09T02:00:46;30.70;78.10
44647;DHT22;56315;-33.902;151.160;2023-04-09T02:03:32;30.30;76.80
44647;DHT22;56315;-33.902;151.160;2023-04-09T02:09:06;29.80;76.00
44647;DHT22;56315;-33.902;151.160;2023-04-09T02:11:35;29.00;77.60
44647;DHT22;56315;-33.902;151.160;2023-04-09T02:14:03;28.70;77.00
44647;DHT22;56315;-33.902;151.160;2023-04-09T02:16:34;28.90;78.80
44647;DHT22;56315;-33.902;151.160;2023-04-09T02:19:02;29.00;77.70
44647;DHT22;56315;-33.902;151.160;2023-04-09T02:21:30;28.90;77.20
44647;DHT22;56315;-33.902;151.160;2023-04-09T02:23:58;28.70;79.10
44647;DHT22;56315;-33.902;151.160;2023-04-09T02:26:25;29.00;78.60
44647;DHT22;56315;-33.902;151.160;2023-04-09T02:28:52;28.70;78.20
44647;DHT22;56315;-33.902;151.160;2023-04-09T02:31:20;28.30;78.20
44647;DHT22;56315;-33.902;151.160;2023-04-09T02:33:47;28.60;77.80
44647;DHT22;56315;-33.902;151.160;2023-04-09T02:36:14;28.50;78.00
44647;DHT22;56315;-33.902;151.160;2023-04-09T02:38:42;28.70;79.00
44647;DHT22;56315;-33.902;151.160;2023-04-09T02:41:09;28.60;78.70
44647;DHT22;56315;-33.902;151.160;2023-04-09T02:43:37;28.60;77.10
44647;DHT22;56315;-33.902;151.160;2023-04-09T02:46:07;28.10;77.30
44647;DHT22;56315;-33.902;151.160;2023-04-09T02:48:34;27.60;77.30
44647;DHT22;56315;-33.902;151.160;2023-04-09T02:51:03;27.30;78.80
44647;DHT22;56315;-33.902;151.160;2023-04-09T02:53:30;26.90;79.10
44647;DHT22;56315;-33.902;151.160;2023-04-09T02:55:57;26.20;80.30
44647;DHT22;56315;-33.902;151.160;2023-04-09T02:58:25;26.10;80.40
44647;DHT22;56315;-33.902;151.160;2023-04-09T03:00:52;26.40;79.60
44647;DHT22;56315;-33.902;151.160;2023-04-09T03:03:19;26.30;78.50
44647;DHT22;56315;-33.902;151.160;2023-04-09T03:05:46;26.30;77.80
44647;DHT22;56315;-33.902;151.160;2023-04-09T03:08:14;26.00;79.50
44647;DHT22;56315;-33.902;151.160;2023-04-09T03:10:42;25.50;79.80
44647;DHT22;56315;-33.902;151.160;2023-04-09T03:13:09;25.60;81.10
44647;DHT22;56315;-33.902;151.160;2023-04-09T03:15:36;25.80;80.20
44647;DHT22;56315;-33.902;151.160;2023-04-09T03:18:03;25.30;79.90
44647;DHT22;56315;-33.902;151.160;2023-04-09T03:20:31;25.00;79.70
44647;DHT22;56315;-33.902;151.160;2023-04-09T03:22:58;24.80;80.70
44647;DHT22;56315;-33.902;151.160;2023-04-09T03:25:25;24.90;80.60
44647;DHT22;56315;-33.902;151.160;2023-04-09T03:27:52;24.80;79.50
44647;DHT22;56315;-33.902;151.160;2023-04-09T03:30:20;24.40;80.20
44647;DHT22;56315;-33.902;151.160;2023-04-09T03:32:47;24.30;80.30
44647;DHT22;56315;-33.902;151.160;2023-04-09T03:35:14;24.30;81.00
44647;DHT22;56315;-33.902;151.160;2023-04-09T03:37:41;24.30;79.50
44647;DHT22;56315;-33.902;151.160;2023-04-09T03:40:09;24.10;81.20
44647;DHT22;56315;-33.902;151.160;2023-04-09T03:42:36;23.90;83.00
44647;DHT22;56315;-33.902;151.160;2023-04-09T03:45:04;23.80;83.10
44647;DHT22;56315;-33.902;151.160;2023-04-09T03:47:32;23.90;82.20
44647;DHT22;56315;-33.902;151.160;2023-04-09T03:50:00;23.80;82.60
44647;DHT22;56315;-33.902;151.160;2023-04-09T03:52:27;23.60;82.50
44647;DHT22;56315;-33.902;151.160;2023-04-09T03:54:54;23.50;82.60
44647;DHT22;56315;-33.902;151.160;2023-04-09T03:57:21;23.30;82.00
44647;DHT22;56315;-33.902;151.160;2023-04-09T03:59:48;23.20;83.30
44647;DHT22;56315;-33.902;151.160;2023-04-09T04:02:16;23.30;83.70
44647;DHT22;56315;-33.902;151.160;2023-04-09T04:04:43;23.30;84.80
44647;DHT22;56315;-33.902;151.160;2023-04-09T04:07:10;23.20;83.10
44647;DHT22;56315;-33.902;151.160;2023-04-09T04:09:37;23.00;83.20
44647;DHT22;56315;-33.902;151.160;2023-04-09T04:12:04;23.00;82.90
44647;DHT22;56315;-33.902;151.160;2023-04-09T04:14:32;22.80;83.40
44647;DHT22;56315;-33.902;151.160;2023-04-09T04:16:59;22.80;83.70
44647;DHT22;56315;-33.902;151.160;2023-04-09T04:19:26;22.80;84.50
44647;DHT22;56315;-33.902;151.160;2023-04-09T04:21:53;22.70;84.50
44647;DHT22;56315;-33.902;151.160;2023-04-09T04:24:20;22.70;83.90
44647;DHT22;56315;-33.902;151.160;2023-04-09T04:26:48;22.70;84.20
44647;DHT22;56315;-33.902;151.160;2023-04-09T04:29:15;22.70;83.70
44647;DHT22;56315;-33.902;151.160;2023-04-09T04:31:42;22.60;83.00
44647;DHT22;56315;-33.902;151.160;2023-04-09T04:34:09;22.50;83.60
44647;DHT22;56315;-33.902;151.160;2023-04-09T04:36:37;22.40;83.20
44647;DHT22;56315;-33.902;151.160;2023-04-09T04:39:04;22.40;83.00
44647;DHT22;56315;-33.902;151.160;2023-04-09T04:41:31;22.30;84.20
44647;DHT22;56315;-33.902;151.160;2023-04-09T04:43:59;22.20;84.30
44647;DHT22;56315;-33.902;151.160;2023-04-09T04:46:26;22.30;84.70
44647;DHT22;56315;-33.902;151.160;2023-04-09T04:48:53;22.20;84.60
44647;DHT22;56315;-33.902;151.160;2023-04-09T04:51:21;22.00;83.10
44647;DHT22;56315;-33.902;151.160;2023-04-09T04:53:50;21.90;84.00
44647;DHT22;56315;-33.902;151.160;2023-04-09T04:56:18;21.80;84.60
44647;DHT22;56315;-33.902;151.160;2023-04-09T04:58:45;21.80;85.60
44647;DHT22;56315;-33.902;151.160;2023-04-09T05:01:13;21.80;85.60
44647;DHT22;56315;-33.902;151.160;2023-04-09T05:03:40;21.80;84.70
44647;DHT22;56315;-33.902;151.160;2023-04-09T05:06:07;21.90;86.10
44647;DHT22;56315;-33.902;151.160;2023-04-09T05:08:34;21.80;85.50
44647;DHT22;56315;-33.902;151.160;2023-04-09T05:11:03;21.80;84.40
44647;DHT22;56315;-33.902;151.160;2023-04-09T05:13:31;21.70;84.60
44647;DHT22;56315;-33.902;151.160;2023-04-09T05:15:58;21.60;85.10
44647;DHT22;56315;-33.902;151.160;2023-04-09T05:18:25;21.50;84.40
44647;DHT22;56315;-33.902;151.160;2023-04-09T05:20:52;21.40;84.90
44647;DHT22;56315;-33.902;151.160;2023-04-09T05:23:19;21.20;84.20
44647;DHT22;56315;-33.902;151.160;2023-04-09T05:25:48;21.10;85.80
44647;DHT22;56315;-33.902;151.160;2023-04-09T05:28:16;21.00;85.30
44647;DHT22;56315;-33.902;151.160;2023-04-09T05:30:46;20.90;86.30
44647;DHT22;56315;-33.902;151.160;2023-04-09T05:33:13;20.90;86.40
44647;DHT22;56315;-33.902;151.160;2023-04-09T05:35:41;20.90;86.30
44647;DHT22;56315;-33.902;151.160;2023-04-09T05:38:08;20.90;86.80
44647;DHT22;56315;-33.902;151.160;2023-04-09T05:40:36;20.80;86.40
44647;DHT22;56315;-33.902;151.160;2023-04-09T05:43:03;20.80;86.10
44647;DHT22;56315;-33.902;151.160;2023-04-09T05:45:31;20.70;86.10
44647;DHT22;56315;-33.902;151.160;2023-04-09T05:47:58;20.70;86.10
44647;DHT22;56315;-33.902;151.160;2023-04-09T05:50:25;20.70;87.10
44647;DHT22;56315;-33.902;151.160;2023-04-09T05:52:53;20.60;87.10
44647;DHT22;56315;-33.902;151.160;2023-04-09T05:55:20;20.60;87.40
44647;DHT22;56315;-33.902;151.160;2023-04-09T05:57:47;20.60;87.60
44647;DHT22;56315;-33.902;151.160;2023-04-09T06:00:15;20.50;86.80
44647;DHT22;56315;-33.902;151.160;2023-04-09T06:02:44;20.50;87.20
44647;DHT22;56315;-33.902;151.160;2023-04-09T06:05:11;20.40;87.00
44647;DHT22;56315;-33.902;151.160;2023-04-09T06:07:39;20.30;87.70
44647;DHT22;56315;-33.902;151.160;2023-04-09T06:10:08;20.30;88.30
44647;DHT22;56315;-33.902;151.160;2023-04-09T06:12:35;20.30;87.30
44647;DHT22;56315;-33.902;151.160;2023-04-09T06:15:04;20.20;87.50
44647;DHT22;56315;-33.902;151.160;2023-04-09T06:17:31;20.20;87.90
44647;DHT22;56315;-33.902;151.160;2023-04-09T06:19:58;20.20;88.10
44647;DHT22;56315;-33.902;151.160;2023-04-09T06:22:25;20.10;87.10
44647;DHT22;56315;-33.902;151.160;2023-04-09T06:24:53;20.10;88.20
44647;DHT22;56315;-33.902;151.160;2023-04-09T06:27:21;20.10;88.00
44647;DHT22;56315;-33.902;151.160;2023-04-09T06:29:48;20.00;87.80
44647;DHT22;56315;-33.902;151.160;2023-04-09T06:32:16;19.90;87.80
44647;DHT22;56315;-33.902;151.160;2023-04-09T06:34:43;19.90;88.00
44647;DHT22;56315;-33.902;151.160;2023-04-09T06:37:10;19.80;89.50
44647;DHT22;56315;-33.902;151.160;2023-04-09T06:39:38;19.70;89.40
44647;DHT22;56315;-33.902;151.160;2023-04-09T06:42:07;19.70;89.30
44647;DHT22;56315;-33.902;151.160;2023-04-09T06:44:34;19.70;88.90
44647;DHT22;56315;-33.902;151.160;2023-04-09T06:47:01;19.60;89.20
44647;DHT22;56315;-33.902;151.160;2023-04-09T06:49:29;19.60;89.40
44647;DHT22;56315;-33.902;151.160;2023-04-09T06:51:56;19.60;89.10
44647;DHT22;56315;-33.902;151.160;2023-04-09T06:54:23;19.60;89.60
44647;DHT22;56315;-33.902;151.160;2023-04-09T06:56:51;19.50;90.00
44647;DHT22;56315;-33.902;151.160;2023-04-09T06:59:18;19.50;89.70
44647;DHT22;56315;-33.902;151.160;2023-04-09T07:01:45;19.40;90.20
44647;DHT22;56315;-33.902;151.160;2023-04-09T07:04:13;19.40;90.20
44647;DHT22;56315;-33.902;151.160;2023-04-09T07:06:40;19.30;89.50
44647;DHT22;56315;-33.902;151.160;2023-04-09T07:09:07;19.30;90.20
44647;DHT22;56315;-33.902;151.160;2023-04-09T07:11:34;19.20;90.20
44647;DHT22;56315;-33.902;151.160;2023-04-09T07:14:02;19.10;90.20
44647;DHT22;56315;-33.902;151.160;2023-04-09T07:16:29;19.10;90.70
44647;DHT22;56315;-33.902;151.160;2023-04-09T07:18:56;19.00;90.60
44647;DHT22;56315;-33.902;151.160;2023-04-09T07:21:23;18.90;90.80
44647;DHT22;56315;-33.902;151.160;2023-04-09T07:23:53;18.90;90.70
44647;DHT22;56315;-33.902;151.160;2023-04-09T07:26:21;18.80;90.70
44647;DHT22;56315;-33.902;151.160;2023-04-09T07:28:49;18.80;90.70
44647;DHT22;56315;-33.902;151.160;2023-04-09T07:31:16;18.80;90.60
44647;DHT22;56315;-33.902;151.160;2023-04-09T07:33:43;18.80;91.00
44647;DHT22;56315;-33.902;151.160;2023-04-09T07:36:10;18.70;90.80
44647;DHT22;56315;-33.902;151.160;2023-04-09T07:38:38;18.60;90.80
44647;DHT22;56315;-33.902;151.160;2023-04-09T07:41:05;18.60;91.00
44647;DHT22;56315;-33.902;151.160;2023-04-09T07:43:32;18.60;91.00
44647;DHT22;56315;-33.902;151.160;2023-04-09T07:46:00;18.50;91.10
44647;DHT22;56315;-33.902;151.160;2023-04-09T07:48:27;18.40;91.50
44647;DHT22;56315;-33.902;151.160;2023-04-09T07:50:54;18.40;91.40
44647;DHT22;56315;-33.902;151.160;2023-04-09T07:53:22;18.30;91.60
44647;DHT22;56315;-33.902;151.160;2023-04-09T07:55:50;18.30;91.70
44647;DHT22;56315;-33.902;151.160;2023-04-09T07:58:17;18.30;91.50
44647;DHT22;56315;-33.902;151.160;2023-04-09T08:00:45;18.20;91.60
44647;DHT22;56315;-33.902;151.160;2023-04-09T08:03:12;18.20;91.60
44647;DHT22;56315;-33.902;151.160;2023-04-09T08:05:39;18.20;91.70
44647;DHT22;56315;-33.902;151.160;2023-04-09T08:08:06;18.10;91.70
44647;DHT22;56315;-33.902;151.160;2023-04-09T08:10:34;18.10;91.90
44647;DHT22;56315;-33.902;151.160;2023-04-09T08:13:01;18.00;91.80
44647;DHT22;56315;-33.902;151.160;2023-04-09T08:15:28;18.00;91.70
44647;DHT22;56315;-33.902;151.160;2023-04-09T08:17:56;18.00;92.00
44647;DHT22;56315;-33.902;151.160;2023-04-09T08:20:23;18.00;92.00
44647;DHT22;56315;-33.902;151.160;2023-04-09T08:22:51;18.00;91.80
44647;DHT22;56315;-33.902;151.160;2023-04-09T08:25:18;18.00;92.10
44647;DHT22;56315;-33.902;151.160;2023-04-09T08:27:46;17.90;92.00
44647;DHT22;56315;-33.902;151.160;2023-04-09T08:30:13;17.90;92.40
44647;DHT22;56315;-33.902;151.160;2023-04-09T08:32:40;17.90;92.50
44647;DHT22;56315;-33.902;151.160;2023-04-09T08:35:08;17.80;92.40
44647;DHT22;56315;-33.902;151.160;2023-04-09T08:37:35;17.80;92.30
44647;DHT22;56315;-33.902;151.160;2023-04-09T08:40:03;17.70;92.40
44647;DHT22;56315;-33.902;151.160;2023-04-09T08:42:31;17.70;92.40
44647;DHT22;56315;-33.902;151.160;2023-04-09T08:45:03;17.70;92.10
44647;DHT22;56315;-33.902;151.160;2023-04-09T08:47:31;17.70;92.30
44647;DHT22;56315;-33.902;151.160;2023-04-09T08:50:00;17.70;92.30
44647;DHT22;56315;-33.902;151.160;2023-04-09T08:52:34;17.70;92.40
44647;DHT22;56315;-33.902;151.160;2023-04-09T08:55:02;17.60;92.50
44647;DHT22;56315;-33.902;151.160;2023-04-09T08:57:30;17.60;92.60
44647;DHT22;56315;-33.902;151.160;2023-04-09T09:00:02;17.60;92.60
44647;DHT22;56315;-33.902;151.160;2023-04-09T09:02:30;17.60;93.00
44647;DHT22;56315;-33.902;151.160;2023-04-09T09:04:57;17.60;92.50
44647;DHT22;56315;-33.902;151.160;2023-04-09T09:07:29;17.60;92.60
44647;DHT22;56315;-33.902;151.160;2023-04-09T09:10:01;17.60;92.50
44647;DHT22;56315;-33.902;151.160;2023-04-09T09:12:39;17.60;92.70
44647;DHT22;56315;-33.902;151.160;2023-04-09T09:15:25;17.60;92.80
44647;DHT22;56315;-33.902;151.160;2023-04-09T09:17:57;17.60;92.60
44647;DHT22;56315;-33.902;151.160;2023-04-09T09:20:26;17.60;92.70
44647;DHT22;56315;-33.902;151.160;2023-04-09T09:22:54;17.60;92.90
44647;DHT22;56315;-33.902;151.160;2023-04-09T09:25:22;17.60;92.70
44647;DHT22;56315;-33.902;151.160;2023-04-09T09:27:51;17.60;92.60
44647;DHT22;56315;-33.902;151.160;2023-04-09T09:30:26;17.60;93.20
44647;DHT22;56315;-33.902;151.160;2023-04-09T09:33:12;17.60;93.30
44647;DHT22;56315;-33.902;151.160;2023-04-09T09:35:52;17.60;93.20
44647;DHT22;56315;-33.902;151.160;2023-04-09T09:38:20;17.50;93.30
44647;DHT22;56315;-33.902;151.160;2023-04-09T09:40:49;17.40;93.30
44647;DHT22;56315;-33.902;151.160;2023-04-09T09:43:17;17.30;93.20
44647;DHT22;56315;-33.902;151.160;2023-04-09T09:45:47;17.20;93.30
44647;DHT22;56315;-33.902;151.160;2023-04-09T09:48:14;17.20;93.70
44647;DHT22;56315;-33.902;151.160;2023-04-09T09:50:42;17.10;93.80
44647;DHT22;56315;-33.902;151.160;2023-04-09T09:53:11;17.00;93.90
44647;DHT22;56315;-33.902;151.160;2023-04-09T09:55:42;16.90;94.10
44647;DHT22;56315;-33.902;151.160;2023-04-09T09:58:23;16.90;94.20
44647;DHT22;56315;-33.902;151.160;2023-04-09T10:00:54;16.90;94.30
44647;DHT22;56315;-33.902;151.160;2023-04-09T10:03:26;16.80;94.10
44647;DHT22;56315;-33.902;151.160;2023-04-09T10:05:54;16.70;94.20
44647;DHT22;56315;-33.902;151.160;2023-04-09T10:08:22;16.70;94.30
44647;DHT22;56315;-33.902;151.160;2023-04-09T10:10:51;16.70;94.40
44647;DHT22;56315;-33.902;151.160;2023-04-09T10:13:25;16.70;94.50
44647;DHT22;56315;-33.902;151.160;2023-04-09T10:15:55;16.60;94.70
44647;DHT22;56315;-33.902;151.160;2023-04-09T10:18:22;16.60;94.60
44647;DHT22;56315;-33.902;151.160;2023-04-09T10:23:46;16.50;94.80
44647;DHT22;56315;-33.902;151.160;2023-04-09T10:26:14;16.50;94.90
44647;DHT22;56315;-33.902;151.160;2023-04-09T10:28:44;16.40;95.00
44647;DHT22;56315;-33.902;151.160;2023-04-09T10:31:11;16.40;95.00
44647;DHT22;56315;-33.902;151.160;2023-04-09T10:33:43;16.40;95.30
44647;DHT22;56315;-33.902;151.160;2023-04-09T10:36:12;16.30;95.40
44647;DHT22;56315;-33.902;151.160;2023-04-09T10:38:44;16.30;95.30
44647;DHT22;56315;-33.902;151.160;2023-04-09T10:41:22;16.30;95.10
44647;DHT22;56315;-33.902;151.160;2023-04-09T10:43:51;16.30;95.20
44647;DHT22;56315;-33.902;151.160;2023-04-09T10:46:34;16.30;95.30
44647;DHT22;56315;-33.902;151.160;2023-04-09T10:54:41;16.20;95.60
44647;DHT22;56315;-33.902;151.160;2023-04-09T10:57:13;16.20;95.60
44647;DHT22;56315;-33.902;151.160;2023-04-09T10:59:48;16.10;95.60
44647;DHT22;56315;-33.902;151.160;2023-04-09T11:05:20;16.10;96.00
44647;DHT22;56315;-33.902;151.160;2023-04-09T11:08:10;16.10;95.90
44647;DHT22;56315;-33.902;151.160;2023-04-09T11:10:40;16.00;96.40
44647;DHT22;56315;-33.902;151.160;2023-04-09T11:13:11;16.00;96.00
44647;DHT22;56315;-33.902;151.160;2023-04-09T11:15:42;16.00;96.30
44647;DHT22;56315;-33.902;151.160;2023-04-09T11:18:14;15.90;96.00
44647;DHT22;56315;-33.902;151.160;2023-04-09T11:20:41;15.90;96.40
44647;DHT22;56315;-33.902;151.160;2023-04-09T11:23:11;15.90;96.10
44647;DHT22;56315;-33.902;151.160;2023-04-09T11:25:39;15.90;96.40
44647;DHT22;56315;-33.902;151.160;2023-04-09T11:28:06;15.80;96.40
44647;DHT22;56315;-33.902;151.160;2023-04-09T11:30:34;15.80;96.30
44647;DHT22;56315;-33.902;151.160;2023-04-09T11:33:03;15.90;96.20
44647;DHT22;56315;-33.902;151.160;2023-04-09T11:35:34;15.80;96.40
44647;DHT22;56315;-33.902;151.160;2023-04-09T11:38:08;15.80;96.80
44647;DHT22;56315;-33.902;151.160;2023-04-09T11:40:36;15.80;97.00
44647;DHT22;56315;-33.902;151.160;2023-04-09T11:43:10;15.70;97.10
44647;DHT22;56315;-33.902;151.160;2023-04-09T11:45:44;15.70;97.00
44647;DHT22;56315;-33.902;151.160;2023-04-09T11:48:16;15.70;97.00
44647;DHT22;56315;-33.902;151.160;2023-04-09T11:50:49;15.60;97.10
44647;DHT22;56315;-33.902;151.160;2023-04-09T11:53:18;15.60;97.40
44647;DHT22;56315;-33.902;151.160;2023-04-09T11:55:50;15.50;97.30
44647;DHT22;56315;-33.902;151.160;2023-04-09T11:58:19;15.50;97.50
44647;DHT22;56315;-33.902;151.160;2023-04-09T12:00:47;15.50;97.10
44647;DHT22;56315;-33.902;151.160;2023-04-09T12:03:15;15.50;97.30
44647;DHT22;56315;-33.902;151.160;2023-04-09T12:05:45;15.40;97.60
44647;DHT22;56315;-33.902;151.160;2023-04-09T12:08:14;15.40;97.50
44647;DHT22;56315;-33.902;151.160;2023-04-09T12:10:42;15.30;97.70
44647;DHT22;56315;-33.902;151.160;2023-04-09T12:13:11;15.40;98.20
44647;DHT22;56315;-33.902;151.160;2023-04-09T12:15:40;15.30;97.80
44647;DHT22;56315;-33.902;151.160;2023-04-09T12:18:10;15.30;98.00
44647;DHT22;56315;-33.902;151.160;2023-04-09T12:20:41;15.30;98.20
44647;DHT22;56315;-33.902;151.160;2023-04-09T12:23:12;15.20;98.50
44647;DHT22;56315;-33.902;151.160;2023-04-09T12:25:41;15.20;98.60
44647;DHT22;56315;-33.902;151.160;2023-04-09T12:28:11;15.20;98.60
44647;DHT22;56315;-33.902;151.160;2023-04-09T12:30:42;15.10;99.00
44647;DHT22;56315;-33.902;151.160;2023-04-09T12:33:10;15.00;98.80
44647;DHT22;56315;-33.902;151.160;2023-04-09T12:35:37;14.90;99.00
44647;DHT22;56315;-33.902;151.160;2023-04-09T12:38:04;14.90;99.30
44647;DHT22;56315;-33.902;151.160;2023-04-09T12:40:31;14.90;99.60
44647;DHT22;56315;-33.902;151.160;2023-04-09T12:42:59;14.80;99.60
44647;DHT22;56315;-33.902;151.160;2023-04-09T12:45:26;14.80;99.40
44647;DHT22;56315;-33.902;151.160;2023-04-09T12:47:54;14.80;99.70
44647;DHT22;56315;-33.902;151.160;2023-04-09T12:50:21;14.80;99.80
44647;DHT22;56315;-33.902;151.160;2023-04-09T12:52:49;14.80;99.90
44647;DHT22;56315;-33.902;151.160;2023-04-09T12:55:16;14.80;99.90
44647;DHT22;56315;-33.902;151.160;2023-04-09T12:57:44;14.70;99.90
44647;DHT22;56315;-33.902;151.160;2023-04-09T13:00:15;14.70;99.90
44647;DHT22;56315;-33.902;151.160;2023-04-09T13:02:42;14.70;99.90
44647;DHT22;56315;-33.902;151.160;2023-04-09T13:05:10;14.70;99.90
44647;DHT22;56315;-33.902;151.160;2023-04-09T13:07:37;14.70;99.90
44647;DHT22;56315;-33.902;151.160;2023-04-09T13:10:05;14.70;99.90
44647;DHT22;56315;-33.902;151.160;2023-04-09T13:12:32;14.60;99.90
44647;DHT22;56315;-33.902;151.160;2023-04-09T13:14:59;14.60;99.90
44647;DHT22;56315;-33.902;151.160;2023-04-09T13:17:27;14.60;99.90
44647;DHT22;56315;-33.902;151.160;2023-04-09T13:19:54;14.60;99.90
44647;DHT22;56315;-33.902;151.160;2023-04-09T13:22:22;14.60;99.90
44647;DHT22;56315;-33.902;151.160;2023-04-09T13:24:49;14.60;99.90
44647;DHT22;56315;-33.902;151.160;2023-04-09T13:27:16;14.50;99.90
44647;DHT22;56315;-33.902;151.160;2023-04-09T13:29:43;14.50;99.90
44647;DHT22;56315;-33.902;151.160;2023-04-09T13:32:11;14.40;99.90
44647;DHT22;56315;-33.902;151.160;2023-04-09T13:34:39;14.40;99.90
44647;DHT22;56315;-33.902;151.160;2023-04-09T13:37:06;14.40;99.90
44647;DHT22;56315;-33.902;151.160;2023-04-09T13:39:33;14.40;99.90
44647;DHT22;56315;-33.902;151.160;2023-04-09T13:42:01;14.40;99.90
44647;DHT22;56315;-33.902;151.160;2023-04-09T13:44:28;14.40;99.90
44647;DHT22;56315;-33.902;151.160;2023-04-09T13:46:55;14.30;99.90
44647;DHT22;56315;-33.902;151.160;2023-04-09T13:49:23;14.30;99.90
44647;DHT22;56315;-33.902;151.160;2023-04-09T13:51:52;14.30;99.90
44647;DHT22;56315;-33.902;151.160;2023-04-09T13:54:21;14.20;99.90
44647;DHT22;56315;-33.902;151.160;2023-04-09T13:56:48;14.20;99.90
44647;DHT22;56315;-33.902;151.160;2023-04-09T13:59:16;14.20;99.90
44647;DHT22;56315;-33.902;151.160;2023-04-09T14:01:43;14.30;99.90
44647;DHT22;56315;-33.902;151.160;2023-04-09T14:04:11;14.30;99.90
44647;DHT22;56315;-33.902;151.160;2023-04-09T14:06:38;14.30;99.90
44647;DHT22;56315;-33.902;151.160;2023-04-09T14:09:05;14.20;99.90
44647;DHT22;56315;-33.902;151.160;2023-04-09T14:11:33;14.20;99.90
44647;DHT22;56315;-33.902;151.160;2023-04-09T14:14:00;14.20;99.90
44647;DHT22;56315;-33.902;151.160;2023-04-09T14:16:28;14.20;99.90
44647;DHT22;56315;-33.902;151.160;2023-04-09T14:18:56;14.20;99.90
44647;DHT22;56315;-33.902;151.160;2023-04-09T14:21:24;14.10;99.90
44647;DHT22;56315;-33.902;151.160;2023-04-09T14:23:52;14.20;99.90
44647;DHT22;56315;-33.902;151.160;2023-04-09T14:26:19;14.20;99.90
44647;DHT22;56315;-33.902;151.160;2023-04-09T14:28:47;14.10;99.90
44647;DHT22;56315;-33.902;151.160;2023-04-09T14:31:14;14.10;99.90
44647;DHT22;56315;-33.902;151.160;2023-04-09T14:33:46;14.00;99.90
44647;DHT22;56315;-33.902;151.160;2023-04-09T14:36:13;14.00;99.90
44647;DHT22;56315;-33.902;151.160;2023-04-09T14:38:41;14.00;99.90
44647;DHT22;56315;-33.902;151.160;2023-04-09T14:41:08;14.00;99.90
44647;DHT22;56315;-33.902;151.160;2023-04-09T14:43:35;14.00;99.90
44647;DHT22;56315;-33.902;151.160;2023-04-09T14:46:03;13.90;99.90
44647;DHT22;56315;-33.902;151.160;2023-04-09T14:48:31;14.00;99.90
44647;DHT22;56315;-33.902;151.160;2023-04-09T14:50:59;14.00;99.90
44647;DHT22;56315;-33.902;151.160;2023-04-09T14:53:26;13.90;99.90
44647;DHT22;56315;-33.902;151.160;2023-04-09T14:55:54;13.90;99.90
44647;DHT22;56315;-33.902;151.160;2023-04-09T14:58:21;13.90;99.90
44647;DHT22;56315;-33.902;151.160;2023-04-09T15:00:48;13.90;99.90
44647;DHT22;56315;-33.902;151.160;2023-04-09T15:03:15;13.90;99.90
44647;DHT22;56315;-33.902;151.160;2023-04-09T15:05:43;13.90;99.90
44647;DHT22;56315;-33.902;151.160;2023-04-09T15:08:10;13.90;99.90
44647;DHT22;56315;-33.902;151.160;2023-04-09T15:10:38;13.80;99.90
44647;DHT22;56315;-33.902;151.160;2023-04-09T15:13:05;13.80;99.90
44647;DHT22;56315;-33.902;151.160;2023-04-09T15:15:33;13.80;99.90
44647;DHT22;56315;-33.902;151.160;2023-04-09T15:18:00;13.80;99.90